Startpagina
METAR-TAF:

METAR-TAF

Vliegvelden :

Vliegbasis Woensdrecht

Woensdrecht, Nederland

breedte: 51-27N, lengte: 004-20E, hoogte: 20 m

Actueel weer

Dit bericht is 8 minuten geleden gemaakt, om 19:25 UTC
Wind 1 kt uit variabele richting
Temperatuur 14°C
Vochtigheid 94%
Druk 1014 hPa
Zicht 10 km of meer

METAR: EHWO 151925Z AUTO VRB01KT 9999 NCD 14/13 Q1014 BLU

Tijdstip: 21:33 (19:33 UTC)

Verwachting

Dit bericht is 11 uur en het 20 minuten geleden gemaakt, om 08:13 UTC
Verwachting geldig van 15 om 09 UTC tot 15 om 21 UTC
Wind 6 kt uit het zuiden
Zicht 10 km of meer
geen wolken onder 1500 m en geen cumulonimbus
Wijzigt naar
van 15 om 15 UTC tot 15 om 18 UTC
Wind 4 kt uit het zuidoosten

TAF: EHWO 150813Z 1509/1521 18006KT CAVOK BECMG 1515/1518 14004KT

Waarnemingen en weersverwachtingen van meer dan 4000 vliegvelden (METAR en TAF).

De beschikbare stations zijn de gele en rode punten op de kaart.

Ga met uw muis naar het station om de naam te zien.

Klik dan om waarnemingen en weersverwachtingen te zien.

kaart wijzigen: klik op de groene knoppen met een zwart kruis om in te zoomen, op de groene knop met een streepje om uit te zoomen of op de groene pijlen voor aangrenzende kaarten.


METAR-TAF: